Time;durP1;ratioP1;P1;durP2;ratioP2;P2;SDS_P1;SDS_P2;PMS_P1;PMS_P2;Temp;Humidity;BMP_temperature;BMP_pressure;BME280_temperature;BME280_humidity;BME280_pressure;Samples;Min_cycle;Max_cycle;Signal;HPM_P1;HPM_P2
2023/07/23 00:00:14;;;;;;;4.55;4.10;;;;;;;21.90;45.51;99744.34;10310383;28;20455;-73
2023/07/23 00:05:15;;;;;;;5.10;4.57;;;;;;;21.85;45.71;99739.56;10327241;28;20054;-69
2023/07/23 00:10:17;;;;;;;4.90;4.40;;;;;;;21.84;45.80;99735.19;10320344;28;20549;-72
2023/07/23 00:15:18;;;;;;;5.80;4.03;;;;;;;21.84;45.98;99735.19;10319288;28;20713;-70
2023/07/23 00:20:20;;;;;;;4.78;4.28;;;;;;;21.82;45.99;99729.13;10316569;28;20196;-70
2023/07/23 00:25:21;;;;;;;5.32;4.28;;;;;;;21.80;45.83;99736.66;10320556;28;20133;-71
2023/07/23 00:30:23;;;;;;;6.63;4.55;;;;;;;21.77;45.70;99728.94;10306610;28;20055;-71
2023/07/23 00:35:24;;;;;;;7.85;4.22;;;;;;;21.66;46.02;99724.16;10315806;28;20078;-72
2023/07/23 00:40:25;;;;;;;9.02;5.25;;;;;;;21.66;46.64;99722.28;10320515;28;20173;-70
2023/07/23 00:45:27;;;;;;;6.25;4.93;;;;;;;21.64;46.73;99723.53;10318258;28;20065;-71
2023/07/23 00:50:29;;;;;;;5.25;4.63;;;;;;;21.56;47.52;99710.19;10318272;28;20057;-71
2023/07/23 00:55:30;;;;;;;5.47;4.38;;;;;;;21.50;47.97;99710.00;10318575;28;20100;-70
2023/07/23 01:00:32;;;;;;;6.57;4.63;;;;;;;21.45;48.46;99703.50;10322924;28;20084;-71
2023/07/23 01:05:34;;;;;;;6.22;4.15;;;;;;;21.36;46.58;99706.44;10352376;28;20057;-67
2023/07/23 01:10:36;;;;;;;6.38;4.35;;;;;;;21.33;46.55;99709.56;10323616;28;20077;-68
2023/07/23 01:15:37;;;;;;;4.63;4.07;;;;;;;21.27;47.77;99690.59;10337368;28;20042;-69
2023/07/23 01:20:38;;;;;;;5.35;3.95;;;;;;;21.24;47.73;99694.53;10331811;28;20553;-70
2023/07/23 01:25:40;;;;;;;5.55;4.05;;;;;;;21.19;48.63;99692.44;10334781;28;20205;-71
2023/07/23 01:30:41;;;;;;;5.43;4.50;;;;;;;21.12;49.43;99690.78;10336623;28;20074;-69
2023/07/23 01:35:46;;;;;;;5.13;4.40;;;;;;;21.05;49.73;99685.38;10331762;28;20500;-68
2023/07/23 01:40:48;;;;;;;5.95;4.50;;;;;;;21.03;49.79;99676.59;10331340;28;20061;-70
2023/07/23 01:45:50;;;;;;;7.75;4.57;;;;;;;20.98;50.17;99673.69;10323519;28;20167;-70
2023/07/23 01:50:51;;;;;;;5.07;4.20;;;;;;;20.91;50.16;99664.72;10336608;28;20049;-71
2023/07/23 01:55:53;;;;;;;6.28;4.60;;;;;;;20.88;50.60;99665.16;10330736;28;21450;-69
2023/07/23 02:00:59;;;;;;;5.53;4.57;;;;;;;20.83;50.76;99672.00;10330035;28;20516;-71
2023/07/23 02:06:01;;;;;;;5.82;4.65;;;;;;;20.75;50.69;99657.84;10334434;28;20049;-69
2023/07/23 02:11:03;;;;;;;5.13;4.63;;;;;;;20.71;51.03;99659.28;10333852;28;20057;-73
2023/07/23 02:16:04;;;;;;;4.93;3.97;;;;;;;20.69;51.59;99658.66;10327781;28;20042;-69
2023/07/23 02:21:05;;;;;;;6.22;4.50;;;;;;;20.65;51.54;99653.66;10330691;28;20054;-68
2023/07/23 02:26:07;;;;;;;7.22;4.82;;;;;;;20.58;51.79;99643.81;10330506;28;20053;-70
2023/07/23 02:31:09;;;;;;;5.03;4.53;;;;;;;20.55;51.68;99657.75;10331298;28;20065;-68
2023/07/23 02:36:10;;;;;;;5.10;4.35;;;;;;;20.49;51.93;99648.59;10329021;28;20042;-70
2023/07/23 02:41:11;;;;;;;5.35;4.80;;;;;;;20.42;52.04;99651.28;10331825;28;20100;-70
2023/07/23 02:46:13;;;;;;;5.00;4.50;;;;;;;20.39;52.04;99662.50;10332133;28;20516;-72
2023/07/23 02:51:14;;;;;;;5.03;4.53;;;;;;;20.30;52.65;99658.31;10331015;28;20058;-71
2023/07/23 02:56:16;;;;;;;6.72;5.03;;;;;;;20.26;52.87;99657.03;10332797;28;20050;-70
2023/07/23 03:01:19;;;;;;;5.13;4.63;;;;;;;20.22;52.82;99659.31;10330023;28;20450;-68
2023/07/23 03:06:21;;;;;;;5.60;4.55;;;;;;;20.16;53.04;99651.16;10330970;28;20110;-68
2023/07/23 03:11:22;;;;;;;5.28;4.82;;;;;;;20.16;53.09;99662.78;10331148;28;20062;-68
2023/07/23 03:16:24;;;;;;;5.03;4.53;;;;;;;20.10;53.62;99659.03;10330709;28;20125;-71
2023/07/23 03:21:25;;;;;;;6.40;4.60;;;;;;;20.07;53.71;99656.75;10329153;28;20057;-71
2023/07/23 03:26:27;;;;;;;5.30;4.63;;;;;;;19.98;53.46;99649.81;10330130;28;20540;-69
2023/07/23 03:31:29;;;;;;;6.65;4.25;;;;;;;19.92;53.92;99661.41;10332039;28;20045;-70
2023/07/23 03:36:31;;;;;;;4.85;4.25;;;;;;;19.84;53.98;99661.59;10329195;28;20062;-70
2023/07/23 03:41:32;;;;;;;5.45;4.00;;;;;;;19.78;53.91;99664.03;10329450;28;20727;-71
2023/07/23 03:46:42;;;;;;;5.22;4.10;;;;;;;19.72;54.16;99656.69;10325834;28;20154;-71
2023/07/23 03:51:43;;;;;;;4.30;3.90;;;;;;;19.63;54.04;99655.19;10329124;28;20677;-72
2023/07/23 03:56:44;;;;;;;4.63;3.95;;;;;;;19.60;54.07;99653.72;10328541;28;20129;-69
2023/07/23 04:01:46;;;;;;;5.78;4.05;;;;;;;19.62;54.36;99650.81;10325818;28;20124;-68
2023/07/23 04:06:47;;;;;;;4.88;4.07;;;;;;;19.64;54.64;99645.25;10328971;28;20053;-69
2023/07/23 04:11:49;;;;;;;6.38;4.15;;;;;;;19.63;54.72;99644.41;10325590;28;20571;-71
2023/07/23 04:16:50;;;;;;;6.05;3.67;;;;;;;19.64;54.94;99651.47;10327074;28;20137;-70
2023/07/23 04:21:52;;;;;;;4.55;4.15;;;;;;;19.65;54.63;99650.44;10326940;28;20050;-71
2023/07/23 04:26:53;;;;;;;4.78;3.90;;;;;;;19.58;54.92;99641.47;10332487;28;21045;-70
2023/07/23 04:31:55;;;;;;;4.65;4.15;;;;;;;19.54;54.38;99640.19;10328363;28;20088;-69
2023/07/23 04:36:56;;;;;;;4.40;3.45;;;;;;;19.51;54.18;99637.88;10327997;28;20049;-69
2023/07/23 04:41:57;;;;;;;4.22;3.78;;;;;;;19.54;54.57;99643.72;10327695;28;20193;-70
2023/07/23 04:46:59;;;;;;;5.60;4.68;;;;;;;19.52;54.50;99650.34;10329569;28;20135;-67
2023/07/23 04:52:00;;;;;;;4.72;3.47;;;;;;;19.50;53.96;99642.47;10324898;28;20057;-70
2023/07/23 04:57:02;;;;;;;7.00;3.38;;;;;;;19.54;53.87;99642.88;10322462;28;20086;-68
2023/07/23 05:02:03;;;;;;;4.53;3.22;;;;;;;19.57;53.57;99647.88;10325297;28;20197;-71
2023/07/23 05:07:05;;;;;;;7.85;4.47;;;;;;;19.54;53.88;99651.81;10328521;28;20054;-69
2023/07/23 05:12:07;;;;;;;4.65;4.20;;;;;;;19.46;54.38;99645.75;10331287;28;20703;-68
2023/07/23 05:17:08;;;;;;;4.05;3.60;;;;;;;19.47;54.14;99634.75;10327701;28;20128;-70
2023/07/23 05:22:10;;;;;;;8.40;3.95;;;;;;;19.35;54.24;99639.00;10326462;28;20072;-68
2023/07/23 05:27:11;;;;;;;11.73;3.90;;;;;;;19.27;54.36;99642.69;10325487;28;20602;-70
2023/07/23 05:32:12;;;;;;;4.50;3.45;;;;;;;19.26;54.74;99641.03;10327931;28;20057;-69
2023/07/23 05:37:14;;;;;;;5.38;3.00;;;;;;;19.38;54.63;99647.56;10325997;28;20057;-70
2023/07/23 05:42:15;;;;;;;5.90;3.90;;;;;;;19.39;54.45;99630.31;10331575;28;20053;-70
2023/07/23 05:47:17;;;;;;;5.40;3.95;;;;;;;19.38;54.13;99644.84;10339152;28;20061;-70
2023/07/23 05:52:18;;;;;;;4.22;3.83;;;;;;;19.36;54.38;99646.06;10335542;28;21362;-69
2023/07/23 05:57:19;;;;;;;8.65;3.75;;;;;;;19.30;54.74;99650.38;10331167;28;20420;-71
2023/07/23 06:02:21;;;;;;;5.88;4.20;;;;;;;19.28;54.52;99641.66;10333899;28;20580;-71
2023/07/23 06:07:22;;;;;;;4.63;3.58;;;;;;;19.33;54.29;99644.59;10332262;28;20139;-69
2023/07/23 06:12:23;;;;;;;5.13;3.40;;;;;;;19.41;54.62;99639.06;10332666;28;20057;-69
2023/07/23 06:17:25;;;;;;;6.28;3.20;;;;;;;19.54;54.18;99642.88;10334843;28;20049;-70
2023/07/23 06:22:26;;;;;;;4.38;3.38;;;;;;;19.65;54.23;99645.06;10333887;28;20049;-71
2023/07/23 06:27:28;;;;;;;7.93;3.72;;;;;;;19.76;53.71;99630.97;10330374;28;20126;-69
2023/07/23 06:32:29;;;;;;;4.75;3.10;;;;;;;19.83;54.10;99632.91;10326660;28;20053;-71
2023/07/23 06:37:31;;;;;;;4.05;3.65;;;;;;;19.93;53.83;99636.91;10331878;28;20816;-71
2023/07/23 06:42:32;;;;;;;3.58;3.08;;;;;;;20.14;53.50;99645.97;10329752;28;20849;-72
2023/07/23 06:47:33;;;;;;;6.45;3.38;;;;;;;20.36;53.01;99640.44;10332122;28;20073;-69
2023/07/23 06:52:35;;;;;;;4.22;3.22;;;;;;;20.47;52.54;99637.97;10331963;28;20128;-72
2023/07/23 06:57:38;;;;;;;3.15;2.63;;;;;;;20.56;52.17;99632.41;10328058;28;20077;-70
2023/07/23 07:02:40;;;;;;;3.50;2.75;;;;;;;20.81;51.11;99638.94;10332651;28;20589;-70
2023/07/23 07:07:41;;;;;;;4.95;3.33;;;;;;;20.86;50.43;99618.56;10332050;28;20050;-72
2023/07/23 07:12:43;;;;;;;4.25;2.60;;;;;;;21.04;50.54;99624.16;10329360;28;20680;-71
2023/07/23 07:17:44;;;;;;;3.95;2.85;;;;;;;21.24;50.10;99610.63;10330597;28;20143;-71
2023/07/23 07:22:46;;;;;;;3.78;2.33;;;;;;;21.49;49.66;99612.72;10329579;28;20084;-71
2023/07/23 07:27:48;;;;;;;3.83;2.80;;;;;;;21.65;49.22;99606.06;10331945;28;20144;-70
2023/07/23 07:32:53;;;;;;;4.25;2.55;;;;;;;21.82;48.12;99604.53;10330169;28;20061;-72
2023/07/23 07:37:55;;;;;;;2.60;1.90;;;;;;;22.03;47.99;99616.16;10325204;28;20056;-73
2023/07/23 07:42:56;;;;;;;2.35;1.73;;;;;;;22.14;47.26;99620.06;10328301;28;20060;-72
2023/07/23 07:47:57;;;;;;;2.75;2.08;;;;;;;22.20;46.37;99638.16;10329288;28;20060;-72
2023/07/23 07:52:59;;;;;;;3.80;1.90;;;;;;;21.96;47.21;99631.59;10329760;28;20408;-71
2023/07/23 07:58:00;;;;;;;2.65;1.63;;;;;;;21.92;47.36;99639.31;10326043;28;21008;-72
2023/07/23 08:03:02;;;;;;;3.88;1.70;;;;;;;21.80;47.99;99631.00;10327883;28;20041;-71
2023/07/23 08:08:06;;;;;;;2.47;1.33;;;;;;;21.88;48.10;99640.78;10325418;28;20065;-72
2023/07/23 08:13:10;;;;;;;3.92;1.33;;;;;;;21.93;47.71;99615.75;10329706;28;20168;-73
2023/07/23 08:18:12;;;;;;;4.25;1.60;;;;;;;21.87;48.13;99626.41;10326710;28;20061;-73
2023/07/23 08:23:13;;;;;;;2.50;1.60;;;;;;;21.79;48.06;99621.22;10328102;28;20721;-71
2023/07/23 08:28:23;;;;;;;3.72;1.40;;;;;;;21.74;48.17;99615.59;10326207;28;20787;-72
2023/07/23 08:33:30;;;;;;;2.15;1.42;;;;;;;21.78;48.49;99629.56;10322716;28;20050;-69
2023/07/23 08:38:31;;;;;;;5.90;1.42;;;;;;;21.74;48.20;99637.28;10327772;28;20049;-72
2023/07/23 08:44:00;;;;;;;2.28;1.52;;;;;;;21.87;48.16;99634.53;10324237;28;20080;-72
2023/07/23 08:49:06;;;;;;;2.42;1.00;;;;;;;22.05;47.92;99641.13;10326382;28;20053;-71
2023/07/23 08:54:08;;;;;;;3.33;1.52;;;;;;;22.18;47.28;99649.22;10327532;28;20783;-69
2023/07/23 08:59:10;;;;;;;1.52;1.30;;;;;;;22.27;47.23;99652.53;10349051;28;20053;-74
2023/07/23 09:04:13;;;;;;;3.08;1.27;;;;;;;22.25;47.08;99651.91;10328125;28;20058;-70
2023/07/23 09:09:14;;;;;;;2.38;1.15;;;;;;;22.20;47.48;99657.13;10328031;28;20071;-72
2023/07/23 09:14:16;;;;;;;1.98;1.10;;;;;;;22.15;47.56;99627.97;10329711;28;20067;-71
2023/07/23 09:19:23;;;;;;;5.75;1.45;;;;;;;22.28;47.54;99637.09;10327539;28;20058;-72
2023/07/23 09:24:34;;;;;;;2.72;0.95;;;;;;;22.32;47.52;99639.19;10329232;28;20124;-72
2023/07/23 09:29:38;;;;;;;2.03;1.40;;;;;;;22.38;47.39;99661.91;10328002;28;20050;-72
2023/07/23 09:34:45;;;;;;;1.60;1.10;;;;;;;22.51;47.33;99650.16;10338190;28;20616;-72
2023/07/23 09:39:47;;;;;;;2.33;1.40;;;;;;;22.52;46.73;99649.94;10334787;28;20054;-72
2023/07/23 09:44:48;;;;;;;3.05;1.20;;;;;;;22.50;46.57;99660.16;10333349;28;20516;-72
2023/07/23 09:49:53;;;;;;;2.50;1.15;;;;;;;22.54;46.65;99664.09;10335704;28;20144;-73
2023/07/23 09:54:55;;;;;;;2.47;1.40;;;;;;;22.55;45.87;99665.78;10334536;28;20065;-73
2023/07/23 09:59:57;;;;;;;1.77;1.02;;;;;;;22.42;46.40;99657.72;10332309;28;20054;-72
2023/07/23 10:04:59;;;;;;;2.33;1.08;;;;;;;22.40;46.05;99657.09;10339107;28;20046;-73
2023/07/23 10:10:01;;;;;;;2.03;1.00;;;;;;;22.28;47.03;99664.19;10335699;28;20057;-72
2023/07/23 10:15:03;;;;;;;1.63;0.85;;;;;;;22.17;46.84;99657.56;10342626;28;20135;-72
2023/07/23 10:20:10;;;;;;;1.23;0.77;;;;;;;22.15;48.12;99665.09;10368117;28;20045;-72
2023/07/23 10:25:31;;;;;;;1.70;1.30;;;;;;;22.11;47.32;99650.28;10340890;28;20133;-73
2023/07/23 10:30:41;;;;;;;1.88;0.82;;;;;;;22.13;47.05;99656.31;10338130;28;20358;-71
2023/07/23 10:35:51;;;;;;;1.00;0.57;;;;;;;22.17;47.50;99647.59;10336714;28;20177;-70
2023/07/23 10:40:53;;;;;;;1.25;0.80;;;;;;;22.25;47.68;99644.63;10337733;28;20413;-73
2023/07/23 10:46:16;;;;;;;1.60;0.85;;;;;;;22.44;47.88;99639.34;10336628;28;20067;-72
2023/07/23 10:51:20;;;;;;;1.23;0.73;;;;;;;22.59;47.19;99623.63;10330809;28;20041;-73
2023/07/23 10:56:28;;;;;;;2.10;0.90;;;;;;;22.57;47.57;99617.56;10336248;28;20132;-72
2023/07/23 11:01:35;;;;;;;2.50;1.38;;;;;;;22.66;47.82;99620.03;10336907;28;20060;-70
2023/07/23 11:06:41;;;;;;;2.88;0.70;;;;;;;22.81;47.57;99609.72;10339191;28;20100;-72
2023/07/23 11:11:42;;;;;;;1.17;0.70;;;;;;;23.02;47.22;99599.53;10338558;28;20057;-72
2023/07/23 11:16:46;;;;;;;2.03;0.90;;;;;;;23.50;46.50;99585.34;10337336;28;20069;-73
2023/07/23 11:21:50;;;;;;;1.50;0.63;;;;;;;23.79;44.27;99588.38;10343257;28;20042;-70
2023/07/23 11:26:55;;;;;;;1.85;1.00;;;;;;;24.00;44.14;99571.66;10339734;28;20107;-72
2023/07/23 11:31:56;;;;;;;1.73;0.60;;;;;;;24.21;42.45;99568.66;10336196;28;20166;-72
2023/07/23 11:36:58;;;;;;;2.20;0.80;;;;;;;24.38;41.89;99557.97;10340479;28;20213;-72
2023/07/23 11:42:00;;;;;;;1.75;0.82;;;;;;;24.43;42.16;99566.28;10338902;28;20042;-73
2023/07/23 11:47:01;;;;;;;1.20;0.80;;;;;;;24.59;42.36;99554.75;10338779;28;20177;-73
2023/07/23 11:52:03;;;;;;;2.83;1.02;;;;;;;24.51;41.52;99553.16;10340052;28;20166;-72
2023/07/23 11:57:05;;;;;;;1.90;0.88;;;;;;;24.38;41.07;99549.81;10339449;28;20155;-73
2023/07/23 12:02:07;;;;;;;2.65;0.82;;;;;;;24.26;42.30;99539.72;10335484;28;20459;-72
2023/07/23 12:07:08;;;;;;;3.17;0.82;;;;;;;24.21;41.67;99536.84;10326497;28;20140;-72
2023/07/23 12:12:12;;;;;;;1.45;0.80;;;;;;;24.28;39.42;99524.00;10343169;28;20062;-73
2023/07/23 12:17:14;;;;;;;1.40;0.93;;;;;;;24.32;39.29;99518.91;10350911;28;20049;-72
2023/07/23 12:22:15;;;;;;;3.22;1.10;;;;;;;24.47;39.86;99516.63;10370991;28;20057;-72
2023/07/23 12:27:17;;;;;;;1.63;1.30;;;;;;;24.62;38.56;99527.09;10347134;28;20057;-72
2023/07/23 12:32:21;;;;;;;3.38;1.20;;;;;;;24.59;38.69;99515.81;10350944;28;20104;-72
2023/07/23 12:37:23;;;;;;;1.23;0.98;;;;;;;24.50;38.23;99524.31;10346169;28;21066;-74
2023/07/23 12:42:24;;;;;;;3.58;1.00;;;;;;;24.52;38.79;99515.91;10337963;28;20061;-71
2023/07/23 12:47:27;;;;;;;2.10;1.17;;;;;;;24.48;36.41;99520.16;10336761;28;20065;-72
2023/07/23 12:52:28;;;;;;;2.15;1.05;;;;;;;24.47;36.38;99524.78;10337989;28;20536;-71
2023/07/23 12:57:30;;;;;;;3.03;1.17;;;;;;;24.48;36.85;99517.44;10332950;28;20062;-72
2023/07/23 13:02:31;;;;;;;2.67;1.35;;;;;;;24.46;36.91;99512.22;10338884;28;20373;-73
2023/07/23 13:07:32;;;;;;;2.72;1.45;;;;;;;24.48;36.95;99512.81;10356705;28;20053;-68
2023/07/23 13:12:34;;;;;;;2.92;1.15;;;;;;;24.55;36.61;99512.72;10356118;28;20062;-71
2023/07/23 13:17:35;;;;;;;5.57;1.40;;;;;;;24.54;36.88;99508.34;10355942;28;20052;-72
2023/07/23 13:22:37;;;;;;;1.50;1.00;;;;;;;24.66;38.15;99501.03;10357585;28;20542;-72
2023/07/23 13:27:38;;;;;;;2.72;1.48;;;;;;;24.81;37.47;99514.19;10360545;28;20045;-73
2023/07/23 13:32:40;;;;;;;2.13;1.13;;;;;;;24.92;37.63;99498.97;10354037;28;20356;-72
2023/07/23 13:37:41;;;;;;;1.52;1.15;;;;;;;25.08;37.74;99508.28;10347701;28;20048;-70
2023/07/23 13:42:42;;;;;;;1.45;1.15;;;;;;;25.10;37.69;99494.44;10350301;28;20045;-71
2023/07/23 13:47:44;;;;;;;1.80;1.17;;;;;;;25.32;37.59;99506.41;10353918;28;20073;-73
2023/07/23 13:52:45;;;;;;;1.77;1.00;;;;;;;25.33;37.32;99493.63;10349655;28;20045;-73
2023/07/23 13:57:47;;;;;;;2.80;1.15;;;;;;;25.31;36.75;99491.16;10349535;28;20081;-74
2023/07/23 14:02:49;;;;;;;2.88;1.65;;;;;;;25.25;37.54;99492.06;10356557;28;20278;-73
2023/07/23 14:07:51;;;;;;;2.67;1.50;;;;;;;25.22;37.70;99487.09;10354885;28;20057;-73
2023/07/23 14:12:52;;;;;;;1.45;1.20;;;;;;;25.30;38.21;99475.88;10347283;28;20149;-73
2023/07/23 14:17:53;;;;;;;4.05;1.80;;;;;;;25.29;38.51;99471.44;10346241;28;20742;-72
2023/07/23 14:22:55;;;;;;;2.95;1.83;;;;;;;25.27;38.75;99459.97;10341830;28;20148;-72
2023/07/23 14:27:56;;;;;;;1.70;1.25;;;;;;;25.26;38.91;99466.50;10361330;28;20510;-73
2023/07/23 14:32:58;;;;;;;4.00;1.40;;;;;;;25.30;39.01;99469.59;10342061;28;20058;-72
2023/07/23 14:37:59;;;;;;;2.47;1.40;;;;;;;25.32;39.22;99456.56;10337835;28;20352;-72
2023/07/23 14:43:01;;;;;;;2.65;1.23;;;;;;;25.32;39.29;99449.22;10336578;28;20132;-72
2023/07/23 14:48:02;;;;;;;2.40;1.48;;;;;;;25.40;39.16;99445.28;10337825;28;20045;-70
2023/07/23 14:53:04;;;;;;;2.47;1.42;;;;;;;25.46;38.73;99448.94;10336031;28;20266;-71
2023/07/23 14:58:05;;;;;;;1.92;1.25;;;;;;;25.45;38.01;99444.59;10335654;28;20054;-71
2023/07/23 15:03:07;;;;;;;2.13;1.33;;;;;;;25.45;37.78;99439.13;10341489;28;20054;-75
2023/07/23 15:08:09;;;;;;;2.70;1.33;;;;;;;25.44;37.91;99448.38;10339852;28;20045;-71
2023/07/23 15:13:11;;;;;;;2.30;1.33;;;;;;;25.40;38.23;99462.47;10337734;28;20050;-73
2023/07/23 15:18:12;;;;;;;1.50;1.00;;;;;;;25.35;38.76;99454.19;10345133;28;20062;-72
2023/07/23 15:23:14;;;;;;;1.40;0.90;;;;;;;25.30;38.65;99473.16;10338707;28;20115;-70
2023/07/23 15:28:19;;;;;;;2.88;1.00;;;;;;;25.30;38.97;99461.44;10340109;28;20046;-70
2023/07/23 15:33:21;;;;;;;2.15;0.95;;;;;;;25.29;38.92;99449.66;10344495;28;20046;-73
2023/07/23 15:38:22;;;;;;;2.10;1.08;;;;;;;25.24;38.86;99441.41;10332954;28;20139;-73
2023/07/23 15:43:24;;;;;;;2.30;0.90;;;;;;;25.22;38.67;99438.06;10334652;28;20045;-71
2023/07/23 15:48:25;;;;;;;3.08;0.85;;;;;;;25.23;39.36;99439.72;10331399;28;20119;-72
2023/07/23 15:53:27;;;;;;;2.67;0.95;;;;;;;25.28;39.51;99442.59;10330515;28;20134;-72
2023/07/23 15:58:28;;;;;;;2.30;0.85;;;;;;;25.31;39.34;99442.13;10331181;28;20757;-72
2023/07/23 16:03:30;;;;;;;3.03;0.95;;;;;;;25.28;39.74;99444.47;10332419;28;20107;-73
2023/07/23 16:08:32;;;;;;;4.73;1.53;;;;;;;25.22;40.01;99449.81;10331946;28;20276;-71
2023/07/23 16:13:33;;;;;;;2.85;0.90;;;;;;;25.16;40.31;99445.31;10328200;28;20046;-70
2023/07/23 16:18:34;;;;;;;1.50;0.88;;;;;;;25.13;40.48;99444.97;10324505;28;20142;-70
2023/07/23 16:23:36;;;;;;;1.70;0.90;;;;;;;25.11;40.83;99447.91;10324734;28;20386;-70
2023/07/23 16:28:37;;;;;;;1.90;0.98;;;;;;;25.09;41.82;99428.28;10327987;28;20045;-72
2023/07/23 16:33:39;;;;;;;2.95;1.10;;;;;;;25.01;42.19;99453.97;10329918;28;20195;-72
2023/07/23 16:38:42;;;;;;;2.60;1.38;;;;;;;24.83;43.21;99440.47;10327375;28;20100;-72
2023/07/23 16:43:45;;;;;;;;;;;;;;;24.82;45.40;99438.84;10327462;28;20132;-72
2023/07/23 16:48:47;;;;;;;2.55;0.75;;;;;;;24.78;45.81;99422.16;10331282;28;20312;-70
2023/07/23 16:53:48;;;;;;;1.60;1.17;;;;;;;24.71;46.44;99435.03;10324925;28;20056;-71
2023/07/23 16:58:49;;;;;;;2.28;1.20;;;;;;;24.68;47.01;99439.09;10326785;28;20531;-72
2023/07/23 17:03:51;;;;;;;2.22;1.05;;;;;;;24.58;47.57;99443.41;10326435;28;20969;-72
2023/07/23 17:08:52;;;;;;;2.45;1.02;;;;;;;24.45;47.21;99433.59;10325570;28;20563;-71
2023/07/23 17:13:54;;;;;;;1.80;1.05;;;;;;;24.41;47.73;99445.97;10323742;28;20058;-71
2023/07/23 17:18:56;;;;;;;3.80;1.77;;;;;;;24.39;47.15;99445.41;10323766;28;20050;-71
2023/07/23 17:23:57;;;;;;;2.58;1.00;;;;;;;24.35;47.60;99448.59;10324727;28;20424;-72
2023/07/23 17:28:59;;;;;;;1.90;1.00;;;;;;;24.26;49.03;99447.28;10327035;28;20485;-71
2023/07/23 17:34:00;;;;;;;1.75;0.90;;;;;;;24.27;49.02;99443.47;10324196;28;20073;-70
2023/07/23 17:39:02;;;;;;;1.33;0.80;;;;;;;24.24;48.89;99441.22;10327731;28;20050;-69
2023/07/23 17:44:03;;;;;;;2.40;0.77;;;;;;;24.14;48.32;99449.13;10325785;28;20410;-70
2023/07/23 17:49:05;;;;;;;1.70;1.20;;;;;;;24.17;48.70;99441.34;10326941;28;20064;-71
2023/07/23 17:54:07;;;;;;;2.10;1.10;;;;;;;24.18;48.08;99437.56;10330559;28;20056;-71
2023/07/23 17:59:08;;;;;;;1.63;1.05;;;;;;;24.17;48.41;99443.25;10332235;28;20850;-72
2023/07/23 18:04:10;;;;;;;1.75;0.98;;;;;;;24.20;48.31;99437.34;10331255;28;20057;-72
2023/07/23 18:09:11;;;;;;;1.40;0.93;;;;;;;24.16;47.69;99436.13;10331308;28;20750;-70
2023/07/23 18:14:13;;;;;;;1.05;0.90;;;;;;;24.12;47.47;99429.50;10334380;28;20057;-73
2023/07/23 18:19:14;;;;;;;0.88;0.77;;;;;;;24.13;47.76;99431.16;10333321;28;20582;-72
2023/07/23 18:24:16;;;;;;;1.42;1.00;;;;;;;24.13;47.51;99418.38;10338350;28;20520;-71
2023/07/23 18:29:17;;;;;;;3.00;1.17;;;;;;;24.12;47.52;99418.63;10340663;28;20049;-70
2023/07/23 18:34:20;;;;;;;1.52;1.20;;;;;;;24.05;47.70;99417.88;10350100;28;20053;-70
2023/07/23 18:39:21;;;;;;;1.63;0.90;;;;;;;24.07;48.40;99422.03;10332087;28;20492;-71
2023/07/23 18:44:23;;;;;;;3.13;1.40;;;;;;;24.02;47.44;99423.78;10336037;28;20125;-69
2023/07/23 18:49:24;;;;;;;1.33;0.90;;;;;;;24.01;48.48;99412.09;10332049;28;20523;-72
2023/07/23 18:54:26;;;;;;;1.00;0.73;;;;;;;23.93;48.54;99421.41;10332301;28;20050;-72
2023/07/23 18:59:30;;;;;;;2.20;1.17;;;;;;;23.95;48.90;99410.31;10330695;28;20501;-71
2023/07/23 19:04:39;;;;;;;2.20;1.10;;;;;;;23.96;48.90;99410.09;10341026;28;20140;-70
2023/07/23 19:09:44;;;;;;;2.10;1.23;;;;;;;23.96;49.52;99420.97;10295466;28;20049;-70
2023/07/23 19:14:45;;;;;;;1.60;0.90;;;;;;;23.83;49.49;99415.69;10306517;28;20045;-69
2023/07/23 19:19:47;;;;;;;2.33;1.10;;;;;;;23.73;49.29;99416.22;10330465;28;20053;-72
2023/07/23 19:24:48;;;;;;;1.65;1.00;;;;;;;23.78;50.39;99412.81;10325837;28;20199;-71
2023/07/23 19:29:50;;;;;;;1.50;1.30;;;;;;;23.86;50.15;99398.13;10310928;28;20058;-71
2023/07/23 19:34:51;;;;;;;2.22;1.00;;;;;;;23.87;50.44;99400.59;10328792;28;20140;-69
2023/07/23 19:39:53;;;;;;;1.95;1.23;;;;;;;23.91;50.53;99406.41;10328483;28;20042;-71
2023/07/23 19:44:54;;;;;;;1.73;1.17;;;;;;;23.82;50.73;99403.16;10328827;28;20141;-72
2023/07/23 19:49:55;;;;;;;2.38;1.30;;;;;;;23.87;51.23;99405.19;10327702;28;20304;-72
2023/07/23 19:54:57;;;;;;;1.98;1.30;;;;;;;23.85;51.88;99402.72;10329543;28;20062;-70
2023/07/23 20:00:02;;;;;;;2.20;1.60;;;;;;;23.81;51.72;99407.75;10330617;28;20054;-72
2023/07/23 20:05:04;;;;;;;1.65;1.17;;;;;;;23.76;51.54;99409.50;10326705;28;20100;-71
2023/07/23 20:10:06;;;;;;;1.75;1.48;;;;;;;23.76;51.73;99414.94;10326779;28;20053;-72
2023/07/23 20:15:08;;;;;;;2.33;1.90;;;;;;;23.76;51.14;99417.66;10328404;28;20447;-72
2023/07/23 20:20:09;;;;;;;3.15;2.03;;;;;;;23.73;50.78;99421.66;10327013;28;20088;-71
2023/07/23 20:25:10;;;;;;;2.92;2.47;;;;;;;23.71;50.32;99412.09;10329212;28;20531;-72
2023/07/23 20:30:12;;;;;;;3.33;2.28;;;;;;;23.71;50.30;99412.09;10327074;28;20516;-71
2023/07/23 20:35:15;;;;;;;4.00;1.77;;;;;;;23.65;49.86;99403.78;10328240;28;20702;-69
2023/07/23 20:40:18;;;;;;;2.83;2.20;;;;;;;23.61;49.72;99410.72;10327191;28;20045;-70
2023/07/23 20:45:19;;;;;;;3.47;1.98;;;;;;;23.62;49.61;99425.97;10325919;28;20054;-71
2023/07/23 20:50:21;;;;;;;2.17;1.48;;;;;;;23.58;49.74;99413.91;10324128;28;20515;-69
2023/07/23 20:55:24;;;;;;;2.80;2.08;;;;;;;23.55;50.43;99411.66;10324538;28;20046;-70
2023/07/23 21:00:25;;;;;;;4.03;2.42;;;;;;;23.56;50.81;99405.19;10327655;28;20371;-72
2023/07/23 21:05:27;;;;;;;3.47;1.67;;;;;;;23.53;51.56;99415.69;10326964;28;20095;-72
2023/07/23 21:10:28;;;;;;;2.63;1.95;;;;;;;23.48;52.06;99405.50;10322032;28;20128;-71
2023/07/23 21:15:29;;;;;;;2.47;1.45;;;;;;;23.43;53.17;99408.06;10326697;28;20061;-70
2023/07/23 21:20:33;;;;;;;2.30;1.60;;;;;;;23.38;53.66;99410.66;10327900;28;20057;-72
2023/07/23 21:25:35;;;;;;;2.45;1.40;;;;;;;23.28;54.34;99398.44;10328460;28;20042;-71
2023/07/23 21:30:36;;;;;;;3.47;1.60;;;;;;;23.28;54.89;99403.03;10333774;28;20046;-71
2023/07/23 21:35:40;;;;;;;2.35;1.67;;;;;;;23.22;55.06;99399.31;10334250;28;20191;-72
2023/07/23 21:40:41;;;;;;;3.08;1.70;;;;;;;23.20;54.76;99398.72;10344982;28;20140;-70
2023/07/23 21:45:46;;;;;;;4.85;1.92;;;;;;;23.15;55.06;99390.47;10333175;28;20634;-69
2023/07/23 21:50:51;;;;;;;2.17;1.60;;;;;;;23.16;55.49;99389.38;10343796;28;20306;-72
2023/07/23 21:55:53;;;;;;;3.20;1.85;;;;;;;23.10;55.65;99374.84;10337993;28;20489;-72
2023/07/23 22:00:55;;;;;;;3.13;1.98;;;;;;;23.09;56.01;99381.34;10335556;28;20128;-71
2023/07/23 22:05:58;;;;;;;1.90;1.50;;;;;;;23.04;56.58;99370.28;10334612;28;20558;-71
2023/07/23 22:11:00;;;;;;;2.53;1.60;;;;;;;23.00;56.83;99358.25;10337555;28;20281;-72
2023/07/23 22:16:01;;;;;;;6.45;1.80;;;;;;;22.97;56.79;99363.28;10333163;28;20077;-73
2023/07/23 22:21:03;;;;;;;2.47;1.77;;;;;;;22.94;56.80;99359.16;10334299;28;20066;-73
2023/07/23 22:26:04;;;;;;;2.55;2.25;;;;;;;22.87;57.34;99345.66;10330369;28;20137;-72
2023/07/23 22:31:05;;;;;;;4.50;2.50;;;;;;;22.82;57.74;99350.09;10333124;28;20128;-70
2023/07/23 22:36:07;;;;;;;3.75;2.00;;;;;;;22.82;57.39;99345.50;10328498;28;20123;-70
2023/07/23 22:41:08;;;;;;;3.58;2.00;;;;;;;22.81;57.27;99338.41;10331857;28;20074;-72
2023/07/23 22:46:10;;;;;;;2.95;1.65;;;;;;;22.75;56.85;99333.88;10359767;28;20050;-72
2023/07/23 22:51:12;;;;;;;3.10;2.10;;;;;;;22.78;56.95;99322.59;10337659;28;20286;-70
2023/07/23 22:56:16;;;;;;;2.40;1.77;;;;;;;22.78;56.98;99336.16;10331533;28;20056;-71
2023/07/23 23:01:21;;;;;;;2.10;1.67;;;;;;;22.74;56.21;99327.66;10330785;28;20053;-71
2023/07/23 23:06:25;;;;;;;2.90;1.75;;;;;;;22.74;55.93;99321.38;10329747;28;20054;-72
2023/07/23 23:11:26;;;;;;;2.45;1.55;;;;;;;;;;10329289;28;20055;-70
2023/07/23 23:16:28;;;;;;;3.83;2.63;;;;;;;22.67;56.09;99315.19;10326639;28;20062;-71
2023/07/23 23:21:30;;;;;;;3.58;2.03;;;;;;;22.67;55.83;99313.31;10327884;28;20285;-73
2023/07/23 23:26:31;;;;;;;4.25;2.03;;;;;;;22.68;55.86;99300.59;10328735;28;20068;-71